Time,TemperatureF,DewpointF,PressureIn,WindDirection,WindDirectionDegrees,WindSpeedMPH,WindSpeedGustMPH,Humidity,HourlyPrecipIn,Conditions,Clouds,dailyrainin,SoftwareType,DateUTC
2013-04-06 00:00:00,36.3,23.8,29.68,North,0,3.0,11.0,60,0.00,,---,-99.99,VWS V14.01,2013-04-06 04:00:00,
2013-04-06 01:00:00,34.7,22.2,29.70,North,0,2.0,13.0,60,0.00,,---,-99.99,VWS V14.01,2013-04-06 05:00:00,
2013-04-06 02:00:00,33.1,17.8,29.72,North,0,1.0,10.0,53,0.00,,---,-99.99,VWS V14.01,2013-04-06 06:00:00,
2013-04-06 03:00:00,32.2,17.4,29.74,North,0,0.0,7.0,54,0.00,,---,-99.99,VWS V14.01,2013-04-06 07:00:00,
2013-04-06 04:00:00,31.3,18.2,29.77,North,0,1.0,10.0,58,0.00,,---,-99.99,VWS V14.01,2013-04-06 08:00:00,
2013-04-06 05:00:00,30.7,17.7,29.82,North,0,0.0,10.0,58,0.00,,---,-99.99,VWS V14.01,2013-04-06 09:00:00,
2013-04-06 06:00:00,30.0,16.6,29.87,North,0,1.0,12.0,57,0.00,,---,-99.99,VWS V14.01,2013-04-06 10:00:00,
2013-04-06 07:00:00,29.4,16.5,29.91,WNW,292,1.0,10.0,58,0.00,,---,-99.99,VWS V14.01,2013-04-06 11:00:00,
2013-04-06 08:00:00,30.0,15.8,29.93,North,0,1.0,7.0,55,0.00,,---,-99.99,VWS V14.01,2013-04-06 12:00:00,
2013-04-06 09:00:00,32.1,14.2,29.96,WNW,292,1.0,12.0,47,0.00,,---,-99.99,VWS V14.01,2013-04-06 13:00:00,
2013-04-06 10:00:00,35.0,16.8,29.98,North,0,1.0,14.0,47,0.00,,---,-99.99,VWS V14.01,2013-04-06 14:00:00,
2013-04-06 11:00:00,34.9,15.2,30.00,North,0,2.0,14.0,44,0.00,,---,-99.99,VWS V14.01,2013-04-06 15:00:00,
2013-04-06 12:00:00,36.3,14.9,30.00,North,0,3.0,19.0,41,0.00,,---,-99.99,VWS V14.01,2013-04-06 16:00:00,
2013-04-06 13:00:00,39.1,15.6,30.03,WNW,292,1.0,12.0,38,0.00,,---,-99.99,VWS V14.01,2013-04-06 17:00:00,
2013-04-06 14:00:00,38.6,12.7,30.03,North,0,2.0,16.0,34,0.00,,---,-99.99,VWS V14.01,2013-04-06 18:00:00,
2013-04-06 15:00:00,38.6,12.7,30.05,North,0,1.0,10.0,34,0.00,,---,-99.99,VWS V14.01,2013-04-06 19:00:00,
2013-04-06 16:00:00,38.3,11.0,30.07,North,0,1.0,11.0,32,0.00,,---,-99.99,VWS V14.01,2013-04-06 20:00:00,
2013-04-06 17:00:00,36.6,9.6,30.10,North,0,1.0,10.0,32,0.00,,---,-99.99,VWS V14.01,2013-04-06 21:00:00,
2013-04-06 18:00:00,35.9,10.9,30.14,North,0,0.0,3.0,35,0.00,,---,-99.99,VWS V14.01,2013-04-06 22:00:00,
2013-04-06 19:00:00,33.8,11.5,30.18,North,0,0.0,4.0,39,0.00,,---,-99.99,VWS V14.01,2013-04-06 23:00:00,
2013-04-06 20:00:00,33.7,12.5,30.22,North,0,0.0,3.0,41,0.00,,---,-99.99,VWS V14.01,2013-04-07 00:00:00,
2013-04-06 21:00:00,31.8,12.9,30.24,North,0,0.0,1.0,45,0.00,,---,-99.99,VWS V14.01,2013-04-07 01:00:00,
2013-04-06 22:00:00,29.4,12.6,30.26,North,0,0.0,0.0,49,0.00,,---,-99.99,VWS V14.01,2013-04-07 02:00:00,
2013-04-06 23:00:00,28.7,16.2,30.26,North,0,0.0,0.0,59,0.00,,---,-99.99,VWS V14.01,2013-04-07 03:00:00,